Time;durP1;ratioP1;P1;durP2;ratioP2;P2;SDS_P1;SDS_P2;PMS_P1;PMS_P2;Temp;Humidity;BMP_temperature;BMP_pressure;BME280_temperature;BME280_humidity;BME280_pressure;Samples;Min_cycle;Max_cycle;Signal;HPM_P1;HPM_P2
2022/08/13 00:00:49;;;;;;;12.70;11.05;;;22.70;99.90;;;;;;4588832;19;20480;-41
2022/08/13 00:02:21;;;;;;;11.93;10.77;;;22.70;99.90;;;;;;4589576;19;20014;-42
2022/08/13 00:03:55;;;;;;;12.18;10.77;;;22.70;99.90;;;;;;4589924;19;20384;-42
2022/08/13 00:05:26;;;;;;;10.88;9.77;;;22.70;99.90;;;;;;4589548;19;20015;-44
2022/08/13 00:08:35;;;;;;;11.77;10.10;;;22.60;99.90;;;;;;4589831;19;20423;-42
2022/08/13 00:10:10;;;;;;;12.93;11.63;;;22.60;99.90;;;;;;4589616;19;20465;-41
2022/08/13 00:13:31;;;;;;;12.65;11.35;;;22.70;99.90;;;;;;4588523;19;20402;-40
2022/08/13 00:15:09;;;;;;;12.70;11.50;;;22.70;99.90;;;;;;4588787;19;20007;-42
2022/08/13 00:16:41;;;;;;;12.98;11.63;;;22.60;99.90;;;;;;4586411;19;20013;-38
2022/08/13 00:18:15;;;;;;;14.27;12.00;;;22.60;99.90;;;;;;4586353;19;20599;-39
2022/08/13 00:19:48;;;;;;;11.38;10.32;;;22.60;99.90;;;;;;4588048;19;20010;-44
2022/08/13 00:21:21;;;;;;;12.70;11.45;;;22.60;99.90;;;;;;4589779;19;20011;-40
2022/08/13 00:22:54;;;;;;;12.75;11.43;;;22.60;99.90;;;;;;4588629;19;20376;-42
2022/08/13 00:24:25;;;;;;;12.25;11.05;;;22.60;99.90;;;;;;4588498;19;20069;-41
2022/08/13 00:25:57;;;;;;;;;;;22.60;99.90;;;;;;4589838;19;20011;-43
2022/08/13 00:27:28;;;;;;;14.68;13.15;;;22.60;99.90;;;;;;4588986;19;19914;-43
2022/08/13 00:29:00;;;;;;;13.43;12.10;;;22.60;99.90;;;;;;4587730;19;20026;-43
2022/08/13 00:30:33;;;;;;;14.27;12.88;;;22.60;99.90;;;;;;4589266;19;20014;-41
2022/08/13 00:32:04;;;;;;;14.55;13.07;;;22.70;99.90;;;;;;4588645;19;20010;-41
2022/08/13 00:33:36;;;;;;;;;;;22.70;99.90;;;;;;4591032;19;20006;-41
2022/08/13 00:35:08;;;;;;;13.60;12.23;;;22.60;99.90;;;;;;4589617;19;19953;-41
2022/08/13 00:36:39;;;;;;;14.55;11.73;;;22.60;99.90;;;;;;4589421;19;20010;-41
2022/08/13 00:38:12;;;;;;;14.60;12.95;;;22.60;99.90;;;;;;4589518;19;20014;-39
2022/08/13 00:39:44;;;;;;;13.85;12.45;;;22.60;99.90;;;;;;4590069;19;20532;-40
2022/08/13 00:43:07;;;;;;;15.05;13.55;;;22.60;99.90;;;;;;4583747;19;20031;-36
2022/08/13 00:44:39;;;;;;;14.60;13.20;;;22.60;99.90;;;;;;4583703;19;20015;-44
2022/08/13 00:46:13;;;;;;;14.85;13.38;;;22.60;99.90;;;;;;4583464;19;20042;-42
2022/08/13 00:49:35;;;;;;;14.85;13.43;;;22.60;99.90;;;;;;4586271;19;20435;-40
2022/08/13 00:51:08;;;;;;;14.23;12.65;;;22.60;99.90;;;;;;4586752;19;20010;-38
2022/08/13 00:52:40;;;;;;;16.20;13.88;;;22.60;99.90;;;;;;4585871;19;20014;-41
2022/08/13 00:54:13;;;;;;;15.13;13.63;;;22.50;99.90;;;;;;4587224;19;20527;-41
2022/08/13 00:55:48;;;;;;;15.25;13.68;;;22.50;99.90;;;;;;4586675;19;20022;-41
2022/08/13 00:57:19;;;;;;;17.35;13.30;;;22.50;99.90;;;;;;4586820;19;20056;-44
2022/08/13 00:58:51;;;;;;;16.27;13.60;;;22.50;99.90;;;;;;4587277;19;20007;-37
2022/08/13 01:00:22;;;;;;;;;;;22.50;99.90;;;;;;4588044;19;20015;-41
2022/08/13 01:01:53;;;;;;;14.57;13.07;;;22.50;99.90;;;;;;4585459;19;19918;-40
2022/08/13 01:03:26;;;;;;;15.23;13.63;;;22.50;99.90;;;;;;4585596;19;20095;-42
2022/08/13 01:04:57;;;;;;;15.75;14.15;;;22.50;99.90;;;;;;4586977;19;20014;-41
2022/08/13 01:06:28;;;;;;;15.35;13.75;;;22.50;99.90;;;;;;4591264;19;20045;-37
2022/08/13 01:07:59;;;;;;;14.20;12.57;;;22.50;99.90;;;;;;4591270;19;20010;-39
2022/08/13 01:09:30;;;;;;;15.40;13.88;;;22.40;99.90;;;;;;4591295;19;20007;-40
2022/08/13 01:11:06;;;;;;;15.15;13.65;;;22.40;99.90;;;;;;4591082;19;20006;-41
2022/08/13 01:12:37;;;;;;;15.02;13.52;;;22.40;99.90;;;;;;4591183;19;20014;-37
2022/08/13 01:14:08;;;;;;;15.93;13.95;;;22.40;99.90;;;;;;4590834;19;20169;-37
2022/08/13 01:15:40;;;;;;;13.93;12.50;;;22.40;99.90;;;;;;4591388;19;20024;-41
2022/08/13 01:17:12;;;;;;;14.95;13.45;;;22.40;99.90;;;;;;4591024;19;20006;-40
2022/08/13 01:18:46;;;;;;;13.88;12.55;;;22.40;99.90;;;;;;4590951;19;20436;-36
2022/08/13 01:20:21;;;;;;;14.18;12.43;;;22.40;99.90;;;;;;4590766;19;20015;-42
2022/08/13 01:21:52;;;;;;;14.48;13.13;;;22.30;99.90;;;;;;4591200;19;20014;-41
2022/08/13 01:23:23;;;;;;;14.23;12.73;;;22.40;99.90;;;;;;4591191;19;19999;-42
2022/08/13 01:24:55;;;;;;;13.98;12.57;;;22.40;99.90;;;;;;4590775;19;20038;-43
2022/08/13 01:26:27;;;;;;;;;;;22.30;99.90;;;;;;4591985;19;20039;-39
2022/08/13 01:27:58;;;;;;;16.02;14.23;;;22.30;99.90;;;;;;4591997;19;19922;-43
2022/08/13 01:29:30;;;;;;;15.75;14.20;;;22.30;99.90;;;;;;4592850;19;20018;-36
2022/08/13 01:31:05;;;;;;;15.00;13.60;;;22.30;99.90;;;;;;4592164;19;20330;-41
2022/08/13 01:32:37;;;;;;;15.13;13.57;;;22.40;99.90;;;;;;4591710;19;20022;-38
2022/08/13 01:34:08;;;;;;;;;;;22.30;99.90;;;;;;4592704;19;20027;-41
2022/08/13 01:35:39;;;;;;;14.32;12.88;;;22.30;99.90;;;;;;4591671;19;19933;-38
2022/08/13 01:37:11;;;;;;;14.60;13.20;;;22.30;99.90;;;;;;4591923;19;20010;-37
2022/08/13 01:38:42;;;;;;;14.75;13.35;;;22.30;99.90;;;;;;4592865;19;20019;-39
2022/08/13 01:40:13;;;;;;;17.27;13.57;;;22.30;99.90;;;;;;4593759;19;20014;-39
2022/08/13 01:41:45;;;;;;;15.05;13.38;;;22.20;99.90;;;;;;4592933;19;20098;-40
2022/08/13 01:43:17;;;;;;;15.30;13.65;;;22.20;99.90;;;;;;4592837;19;20026;-37
2022/08/13 01:44:48;;;;;;;14.68;13.23;;;22.20;99.90;;;;;;4593137;19;20010;-39
2022/08/13 01:46:19;;;;;;;14.98;13.48;;;22.20;99.90;;;;;;4592957;19;20006;-43
2022/08/13 01:51:37;;;;;;;14.15;12.70;;;22.30;99.90;;;;;;4591855;19;20022;-37
2022/08/13 01:53:11;;;;;;;14.07;12.60;;;22.20;99.90;;;;;;4589698;19;20027;-41
2022/08/13 01:54:42;;;;;;;14.25;12.70;;;22.20;99.90;;;;;;4592356;19;19994;-40
2022/08/13 01:56:16;;;;;;;14.15;12.68;;;22.30;99.90;;;;;;4591077;19;20010;-40
2022/08/13 01:57:47;;;;;;;14.20;12.70;;;22.20;99.90;;;;;;4592006;19;20010;-42
2022/08/13 01:59:18;;;;;;;13.30;11.70;;;22.20;99.90;;;;;;4591616;19;20088;-41
2022/08/13 02:00:55;;;;;;;15.45;12.45;;;22.30;99.90;;;;;;4592529;19;20017;-38
2022/08/13 02:02:27;;;;;;;13.40;12.07;;;22.20;99.90;;;;;;4591152;19;20540;-39
2022/08/13 02:03:58;;;;;;;12.52;11.32;;;22.20;99.90;;;;;;4591491;19;20057;-39
2022/08/13 02:05:30;;;;;;;13.88;12.52;;;22.20;99.90;;;;;;4592065;19;20019;-42
2022/08/13 02:07:01;;;;;;;13.85;12.57;;;22.20;99.90;;;;;;4591707;19;19994;-39
2022/08/13 02:08:35;;;;;;;13.10;11.65;;;22.20;99.90;;;;;;4591819;19;20468;-42
2022/08/13 02:10:06;;;;;;;14.60;12.93;;;22.20;99.90;;;;;;4591152;19;20011;-42
2022/08/13 02:11:38;;;;;;;;;;;22.20;99.90;;;;;;4592262;19;20010;-37
2022/08/13 02:13:11;;;;;;;;;;;22.20;99.90;;;;;;4593283;19;19918;-38
2022/08/13 02:14:44;;;;;;;12.48;11.27;;;22.20;99.90;;;;;;4592037;19;19922;-40
2022/08/13 02:16:15;;;;;;;13.93;12.50;;;22.20;99.90;;;;;;4590310;19;20019;-38
2022/08/13 02:17:47;;;;;;;;;;;22.20;99.90;;;;;;4590969;19;20023;-41
2022/08/13 02:19:18;;;;;;;13.80;11.50;;;22.20;99.90;;;;;;4591531;19;19935;-38
2022/08/13 02:20:57;;;;;;;13.93;12.20;;;22.20;99.90;;;;;;4591972;19;20014;-43
2022/08/13 02:22:28;;;;;;;14.35;12.85;;;22.20;99.90;;;;;;4592384;19;20348;-38
2022/08/13 02:24:00;;;;;;;18.10;16.27;;;22.20;99.90;;;;;;4592535;19;20097;-41
2022/08/13 02:25:31;;;;;;;18.58;15.80;;;22.20;99.90;;;;;;4591640;19;20030;-41
2022/08/13 02:27:03;;;;;;;17.85;16.02;;;22.20;99.90;;;;;;4590623;19;20493;-42
2022/08/13 02:28:39;;;;;;;16.48;14.68;;;22.20;99.90;;;;;;4590606;19;20010;-38
2022/08/13 02:30:11;;;;;;;16.60;14.73;;;22.20;99.90;;;;;;4591693;19;20042;-36
2022/08/13 02:31:42;;;;;;;;;;;22.20;99.90;;;;;;4590603;19;20017;-40
2022/08/13 02:33:13;;;;;;;15.98;14.38;;;22.20;99.90;;;;;;4590752;19;19910;-40
2022/08/13 02:34:45;;;;;;;15.57;13.57;;;22.10;99.90;;;;;;4591909;19;20002;-39
2022/08/13 02:36:16;;;;;;;13.90;12.50;;;22.10;99.90;;;;;;4591884;19;20041;-34
2022/08/13 02:37:47;;;;;;;18.85;15.13;;;22.10;99.90;;;;;;4590390;19;20583;-40
2022/08/13 02:39:18;;;;;;;14.13;12.75;;;22.10;99.90;;;;;;4590999;19;20014;-41
2022/08/13 02:42:40;;;;;;;13.90;12.63;;;22.10;99.90;;;;;;4592361;19;20009;-40
2022/08/13 02:44:13;;;;;;;15.05;13.45;;;22.10;99.90;;;;;;4588930;19;20077;-40
2022/08/13 02:45:45;;;;;;;14.68;13.13;;;22.10;99.90;;;;;;4589952;19;20018;-37
2022/08/13 02:47:16;;;;;;;15.52;13.48;;;22.10;99.90;;;;;;4590437;19;20006;-37
2022/08/13 02:48:49;;;;;;;14.82;13.07;;;22.10;99.90;;;;;;4591156;19;20011;-42
2022/08/13 02:50:20;;;;;;;13.27;11.95;;;22.10;99.90;;;;;;4589858;19;20017;-39
2022/08/13 02:51:51;;;;;;;12.77;11.48;;;22.10;99.90;;;;;;4589522;19;20010;-41
2022/08/13 02:53:23;;;;;;;13.23;11.55;;;22.10;99.90;;;;;;4591417;19;19998;-41
2022/08/13 02:54:54;;;;;;;;;;;22.10;99.90;;;;;;4592720;19;20070;-42
2022/08/13 02:56:26;;;;;;;11.20;10.13;;;22.10;99.90;;;;;;4591355;19;19978;-38
2022/08/13 02:57:57;;;;;;;10.88;9.85;;;22.10;99.90;;;;;;4590611;19;20011;-42
2022/08/13 02:59:28;;;;;;;12.52;10.93;;;22.10;99.90;;;;;;4591779;19;20014;-40
2022/08/13 03:01:02;;;;;;;11.98;9.82;;;22.10;99.90;;;;;;4591452;19;20010;-41
2022/08/13 03:02:37;;;;;;;11.50;10.30;;;22.10;99.90;;;;;;4590005;19;20018;-42
2022/08/13 03:04:08;;;;;;;12.10;10.80;;;22.10;99.90;;;;;;4590887;19;20007;-44
2022/08/13 03:05:40;;;;;;;12.05;10.48;;;22.10;99.90;;;;;;4591375;19;20022;-41
2022/08/13 03:07:11;;;;;;;12.13;10.43;;;22.10;99.90;;;;;;4590785;19;20511;-41
2022/08/13 03:08:43;;;;;;;12.48;10.75;;;22.10;99.90;;;;;;4591024;19;20018;-42
2022/08/13 03:10:16;;;;;;;11.27;10.13;;;22.10;99.90;;;;;;4591158;19;20014;-36
2022/08/13 03:11:48;;;;;;;10.55;9.55;;;22.10;99.90;;;;;;4590803;19;20018;-40
2022/08/13 03:13:21;;;;;;;11.07;9.98;;;22.10;99.90;;;;;;4590570;19;20074;-44
2022/08/13 03:14:52;;;;;;;12.13;9.60;;;22.10;99.90;;;;;;4590618;19;20006;-41
2022/08/13 03:16:25;;;;;;;13.18;9.68;;;22.10;99.90;;;;;;4589256;19;20002;-38
2022/08/13 03:17:57;;;;;;;10.65;9.63;;;22.10;99.90;;;;;;4590360;19;20341;-36
2022/08/13 03:19:28;;;;;;;10.07;9.07;;;22.20;99.90;;;;;;4589497;19;20024;-37
2022/08/13 03:20:59;;;;;;;9.20;8.27;;;22.20;99.90;;;;;;4591076;19;20014;-43
2022/08/13 03:22:30;;;;;;;9.57;8.57;;;22.20;99.90;;;;;;4590833;19;20027;-43
2022/08/13 03:24:03;;;;;;;8.93;8.07;;;22.10;99.90;;;;;;4591554;19;20006;-41
2022/08/13 03:25:35;;;;;;;7.93;7.13;;;22.10;99.90;;;;;;4590773;19;20003;-41
2022/08/13 03:27:08;;;;;;;10.10;8.43;;;22.10;99.90;;;;;;4589737;19;20056;-39
2022/08/13 03:28:39;;;;;;;7.93;6.90;;;22.10;99.90;;;;;;4587621;19;20025;-41
2022/08/13 03:30:11;;;;;;;7.22;6.43;;;22.10;99.90;;;;;;4590072;19;20002;-41
2022/08/13 03:31:43;;;;;;;6.78;6.15;;;22.10;99.90;;;;;;4590065;19;20033;-35
2022/08/13 03:33:14;;;;;;;8.00;6.22;;;22.10;99.90;;;;;;4590710;19;20015;-41
2022/08/13 03:34:45;;;;;;;6.78;6.07;;;22.00;99.90;;;;;;4590525;19;20488;-40
2022/08/13 03:36:16;;;;;;;6.95;6.25;;;22.10;99.90;;;;;;4590495;19;20021;-38
2022/08/13 03:37:49;;;;;;;7.70;5.82;;;22.00;99.90;;;;;;4590497;19;20011;-39
2022/08/13 03:39:20;;;;;;;6.63;5.38;;;22.00;99.90;;;;;;4590942;19;20020;-43
2022/08/13 03:41:00;;;;;;;7.15;5.88;;;22.00;99.90;;;;;;4590622;19;20016;-40
2022/08/13 03:42:31;;;;;;;8.18;5.47;;;22.00;99.90;;;;;;4590165;19;20014;-41
2022/08/13 03:44:04;;;;;;;6.57;5.50;;;22.00;99.90;;;;;;4590713;19;20011;-40
2022/08/13 03:45:35;;;;;;;7.35;5.97;;;22.00;99.90;;;;;;4590396;19;20021;-38
2022/08/13 03:47:06;;;;;;;6.13;5.13;;;22.00;99.90;;;;;;4589704;19;20010;-41
2022/08/13 03:48:38;;;;;;;6.40;5.80;;;22.00;99.90;;;;;;4589802;19;20006;-40
2022/08/13 03:50:10;;;;;;;6.68;5.75;;;22.00;99.90;;;;;;4590402;19;20372;-42
2022/08/13 03:51:41;;;;;;;6.18;5.57;;;22.00;99.90;;;;;;4589746;19;20023;-37
2022/08/13 03:53:12;;;;;;;7.40;6.55;;;22.00;99.90;;;;;;4588942;19;20010;-38
2022/08/13 03:54:43;;;;;;;7.15;5.80;;;22.00;99.90;;;;;;4589960;19;20018;-39
2022/08/13 03:56:15;;;;;;;6.95;6.00;;;22.00;99.90;;;;;;4586918;19;20014;-39
2022/08/13 03:57:46;;;;;;;6.97;6.18;;;22.00;99.90;;;;;;4590155;19;20018;-39
2022/08/13 03:59:17;;;;;;;5.57;5.07;;;22.00;99.90;;;;;;4589769;19;20011;-40
2022/08/13 04:00:48;;;;;;;;;;;22.00;99.90;;;;;;4590592;19;20018;-37
2022/08/13 04:02:19;;;;;;;8.50;4.93;;;22.00;99.90;;;;;;4590163;19;19928;-39
2022/08/13 04:03:50;;;;;;;6.35;5.10;;;22.00;99.90;;;;;;4590273;19;20018;-36
2022/08/13 04:05:22;;;;;;;5.90;5.35;;;22.00;99.90;;;;;;4589954;19;20472;-40
2022/08/13 04:06:53;;;;;;;4.78;4.15;;;22.00;99.90;;;;;;4590086;19;20074;-36
2022/08/13 04:08:26;;;;;;;;;;;22.00;99.90;;;;;;4591187;19;20011;-36
2022/08/13 04:09:57;;;;;;;;;;;22.00;99.90;;;;;;4589755;19;19914;-42
2022/08/13 04:11:28;;;;;;;5.20;4.70;;;22.10;99.90;;;;;;4588436;19;19919;-41
2022/08/13 04:12:59;;;;;;;;;;;22.00;99.90;;;;;;4591003;19;20425;-40
2022/08/13 04:14:31;;;;;;;8.23;4.17;;;22.00;99.90;;;;;;4588758;19;19965;-44
2022/08/13 04:16:18;;;;;;;4.80;4.30;;;22.00;99.90;;;;;;4589345;19;20433;-36
2022/08/13 04:17:49;;;;;;;4.72;4.25;;;22.00;99.90;;;;;;4588513;19;20376;-40
2022/08/13 04:19:20;;;;;;;6.68;5.03;;;22.00;99.90;;;;;;4589509;19;20014;-43
2022/08/13 04:20:54;;;;;;;7.85;4.70;;;22.10;99.90;;;;;;4590235;19;20535;-36
2022/08/13 04:22:27;;;;;;;5.65;4.55;;;22.00;99.90;;;;;;4590280;19;20030;-41
2022/08/13 04:23:58;;;;;;;5.93;4.63;;;22.10;99.90;;;;;;4589679;19;20012;-41
2022/08/13 04:25:29;;;;;;;5.68;4.55;;;22.10;99.90;;;;;;4589894;19;20007;-41
2022/08/13 04:27:02;;;;;;;6.47;4.50;;;22.10;99.90;;;;;;4589549;19;20009;-41
2022/08/13 04:28:33;;;;;;;5.57;4.18;;;22.00;99.90;;;;;;4589093;19;20472;-42
2022/08/13 04:30:04;;;;;;;6.80;4.53;;;22.10;99.90;;;;;;4589560;19;20019;-36
2022/08/13 04:31:35;;;;;;;4.82;3.85;;;22.00;99.90;;;;;;4589090;19;20070;-38
2022/08/13 04:33:15;;;;;;;4.22;3.72;;;22.10;99.90;;;;;;4589986;19;20010;-40
2022/08/13 04:34:46;;;;;;;5.00;4.45;;;22.00;99.90;;;;;;4589404;19;20010;-38
2022/08/13 04:36:18;;;;;;;4.78;4.25;;;22.10;99.90;;;;;;4587144;19;20024;-40
2022/08/13 04:37:49;;;;;;;;;;;22.10;99.90;;;;;;4589148;19;20353;-39
2022/08/13 04:39:21;;;;;;;4.82;4.25;;;22.10;99.90;;;;;;4590938;19;19914;-38
2022/08/13 04:40:51;;;;;;;5.18;4.10;;;22.10;99.90;;;;;;4594107;19;20018;-38
2022/08/13 04:42:22;;;;;;;5.30;4.50;;;22.10;99.90;;;;;;4593955;19;20066;-40
2022/08/13 04:43:54;;;;;;;7.32;5.20;;;22.10;99.90;;;;;;4594216;19;20495;-37
2022/08/13 04:45:26;;;;;;;6.18;4.35;;;22.10;99.90;;;;;;4593980;19;20346;-40
2022/08/13 04:46:57;;;;;;;5.78;4.30;;;22.00;99.90;;;;;;4592637;19;20095;-39
2022/08/13 04:48:31;;;;;;;6.25;5.03;;;22.10;99.90;;;;;;4593630;19;20006;-40
2022/08/13 04:50:05;;;;;;;7.57;4.88;;;22.10;99.90;;;;;;4592864;19;20034;-39
2022/08/13 04:51:37;;;;;;;5.43;4.50;;;22.10;99.90;;;;;;4593127;19;20010;-35
2022/08/13 04:53:23;;;;;;;5.00;4.35;;;22.00;99.90;;;;;;4591725;19;20069;-39
2022/08/13 04:54:54;;;;;;;6.45;4.85;;;22.10;99.90;;;;;;4593714;19;20014;-37
2022/08/13 04:56:25;;;;;;;7.10;4.32;;;22.10;99.90;;;;;;4593749;19;20006;-40
2022/08/13 04:57:56;;;;;;;5.10;4.18;;;22.10;99.90;;;;;;4594054;19;20018;-37
2022/08/13 04:59:27;;;;;;;6.18;3.92;;;22.10;99.90;;;;;;4593630;19;20018;-39
2022/08/13 05:01:09;;;;;;;5.03;3.90;;;22.10;99.90;;;;;;4593931;19;20062;-40
2022/08/13 05:02:43;;;;;;;4.85;4.13;;;22.10;99.90;;;;;;4592388;19;20476;-40
2022/08/13 05:04:15;;;;;;;5.10;4.22;;;22.10;99.90;;;;;;4592513;19;20010;-39
2022/08/13 05:05:48;;;;;;;4.93;4.38;;;22.10;99.90;;;;;;4593158;19;20038;-42
2022/08/13 05:07:20;;;;;;;5.57;4.28;;;22.10;99.90;;;;;;4592208;19;20007;-35
2022/08/13 05:08:52;;;;;;;4.47;4.07;;;22.10;99.90;;;;;;4593125;19;20010;-40
2022/08/13 05:10:23;;;;;;;;;;;22.30;99.90;;;;;;4594998;19;20025;-40
2022/08/13 05:11:55;;;;;;;5.18;3.97;;;22.50;99.90;;;;;;4592400;19;19919;-40
2022/08/13 05:13:30;;;;;;;4.20;3.80;;;22.60;99.90;;;;;;4593492;19;20021;-39
2022/08/13 05:15:04;;;;;;;4.65;3.70;;;22.80;99.90;;;;;;4593433;19;20463;-39
2022/08/13 05:16:36;;;;;;;4.07;3.65;;;22.90;99.90;;;;;;4593159;19;20015;-40
2022/08/13 05:18:07;;;;;;;4.10;3.50;;;22.90;99.90;;;;;;4593290;19;20033;-37
2022/08/13 05:19:38;;;;;;;5.18;3.40;;;23.00;99.90;;;;;;4593314;19;20021;-42
2022/08/13 05:21:09;;;;;;;5.72;3.35;;;23.00;99.90;;;;;;4593699;19;20014;-39
2022/08/13 05:22:41;;;;;;;4.00;3.40;;;23.10;99.90;;;;;;4592193;19;20007;-35
2022/08/13 05:24:12;;;;;;;6.60;4.05;;;23.10;99.90;;;;;;4592877;19;20014;-39
2022/08/13 05:25:43;;;;;;;4.07;3.45;;;23.10;99.90;;;;;;4592690;19;20031;-43
2022/08/13 05:27:14;;;;;;;6.00;3.30;;;23.20;99.90;;;;;;4594035;19;20018;-42
2022/08/13 05:28:45;;;;;;;3.90;3.45;;;23.10;99.90;;;;;;4592307;19;20057;-41
2022/08/13 05:30:16;;;;;;;4.45;3.60;;;23.10;99.90;;;;;;4591315;19;20330;-44
2022/08/13 05:31:49;;;;;;;5.25;3.85;;;23.10;99.90;;;;;;4590212;19;20062;-39
2022/08/13 05:33:22;;;;;;;4.82;3.50;;;23.10;99.90;;;;;;4593951;19;20430;-39
2022/08/13 05:34:53;;;;;;;4.07;3.20;;;23.00;99.90;;;;;;4592205;19;20011;-41
2022/08/13 05:36:28;;;;;;;4.63;3.17;;;23.00;99.90;;;;;;4592511;19;20377;-40
2022/08/13 05:37:59;;;;;;;5.20;4.18;;;23.00;99.90;;;;;;4592342;19;20452;-38
2022/08/13 05:39:30;;;;;;;;;;;23.00;99.90;;;;;;4593047;19;20017;-42
2022/08/13 05:41:06;;;;;;;4.38;3.80;;;23.00;99.90;;;;;;4591455;19;19974;-40
2022/08/13 05:42:39;;;;;;;5.72;3.42;;;22.90;99.90;;;;;;4591417;19;20014;-41
2022/08/13 05:44:10;;;;;;;3.80;3.40;;;22.90;99.90;;;;;;4589926;19;20006;-39
2022/08/13 05:45:42;;;;;;;5.63;3.95;;;23.00;99.90;;;;;;4590624;19;20373;-39
2022/08/13 05:47:14;;;;;;;4.68;3.25;;;22.90;99.90;;;;;;4593438;19;20074;-40
2022/08/13 05:48:56;;;;;;;;;;;23.00;99.90;;;;;;4594329;19;20040;-36
2022/08/13 05:50:28;;;;;;;4.53;4.03;;;23.00;99.90;;;;;;4593260;19;19974;-37
2022/08/13 05:52:01;;;;;;;6.13;4.07;;;23.00;99.90;;;;;;4590146;19;20011;-36
2022/08/13 05:53:32;;;;;;;5.53;3.42;;;23.10;99.90;;;;;;4592407;19;20039;-41
2022/08/13 05:55:10;;;;;;;4.13;3.70;;;23.00;99.90;;;;;;4591832;19;20015;-40
2022/08/13 05:56:41;;;;;;;6.68;4.20;;;23.00;99.90;;;;;;4591041;19;20495;-41
2022/08/13 05:58:12;;;;;;;5.68;4.28;;;23.00;99.90;;;;;;4591581;19;20010;-38
2022/08/13 06:03:28;;;;;;;5.53;3.60;;;23.00;99.90;;;;;;4589145;19;20128;-40
2022/08/13 06:05:00;;;;;;;4.85;3.60;;;23.00;99.90;;;;;;4589131;19;20014;-43
2022/08/13 06:06:32;;;;;;;4.40;3.50;;;23.00;99.90;;;;;;4588663;19;20010;-40
2022/08/13 06:08:03;;;;;;;5.07;3.67;;;23.00;99.90;;;;;;4588023;19;20524;-40
2022/08/13 06:09:35;;;;;;;4.25;3.70;;;23.00;99.90;;;;;;4588038;19;20039;-43
2022/08/13 06:11:07;;;;;;;;;;;23.00;99.90;;;;;;4591834;19;20019;-44
2022/08/13 06:12:42;;;;;;;4.70;3.60;;;23.10;99.90;;;;;;4590055;19;19911;-42
2022/08/13 06:14:23;;;;;;;7.75;3.63;;;23.00;99.90;;;;;;4590030;19;20349;-37
2022/08/13 06:15:58;;;;;;;7.03;3.58;;;23.00;99.90;;;;;;4589886;19;20018;-41
2022/08/13 06:17:29;;;;;;;5.28;3.78;;;23.00;99.90;;;;;;4589765;19;20527;-41
2022/08/13 06:19:00;;;;;;;4.10;3.45;;;23.10;99.90;;;;;;4589636;19;20060;-39
2022/08/13 06:20:31;;;;;;;4.45;3.58;;;23.10;99.90;;;;;;4588454;19;20011;-38
2022/08/13 06:22:04;;;;;;;5.07;3.70;;;23.10;99.90;;;;;;4588771;19;20030;-42
2022/08/13 06:23:37;;;;;;;3.85;3.45;;;23.10;99.90;;;;;;4588698;19;20994;-41
2022/08/13 06:25:08;;;;;;;9.15;4.93;;;23.20;99.90;;;;;;4587989;19;20006;-41
2022/08/13 06:26:39;;;;;;;8.68;4.85;;;23.00;99.90;;;;;;4587496;19;20511;-44
2022/08/13 06:28:10;;;;;;;6.95;4.50;;;23.00;99.90;;;;;;4588752;19;20018;-40
2022/08/13 06:29:44;;;;;;;5.15;4.30;;;23.00;99.90;;;;;;4589994;19;20036;-37
2022/08/13 06:31:25;;;;;;;4.97;3.92;;;23.10;99.90;;;;;;4588848;19;20072;-42
2022/08/13 06:33:02;;;;;;;4.28;3.83;;;23.10;99.90;;;;;;4589115;19;20022;-37
2022/08/13 06:34:35;;;;;;;5.05;3.75;;;23.10;99.90;;;;;;4589607;19;20010;-38
2022/08/13 06:36:12;;;;;;;6.28;4.05;;;23.10;99.90;;;;;;4588963;19;20119;-41
2022/08/13 06:37:45;;;;;;;5.85;4.13;;;22.60;99.90;;;;;;4589078;19;20031;-41
2022/08/13 06:39:16;;;;;;;6.13;5.05;;;22.30;99.90;;;;;;4587546;19;20358;-42
2022/08/13 06:40:47;;;;;;;7.95;4.72;;;22.00;99.90;;;;;;4587682;19;20032;-42
2022/08/13 06:42:18;;;;;;;5.15;4.40;;;21.90;99.90;;;;;;4587902;19;20021;-44
2022/08/13 06:43:51;;;;;;;6.28;4.50;;;21.80;99.90;;;;;;4590324;19;20007;-45
2022/08/13 06:45:23;;;;;;;5.30;4.18;;;21.70;99.90;;;;;;4590484;19;20806;-41
2022/08/13 06:46:54;;;;;;;;;;;21.70;99.90;;;;;;4591398;19;20038;-44
2022/08/13 06:48:26;;;;;;;10.73;4.80;;;21.90;99.90;;;;;;4591276;19;19918;-45
2022/08/13 06:49:59;;;;;;;8.85;6.43;;;22.00;99.90;;;;;;4590397;19;20015;-44
2022/08/13 06:51:31;;;;;;;8.25;6.68;;;21.70;99.90;;;;;;4588983;19;20015;-44
2022/08/13 06:53:04;;;;;;;9.65;5.82;;;21.50;99.90;;;;;;4586239;19;20018;-39
2022/08/13 06:54:35;;;;;;;8.02;5.10;;;21.40;99.90;;;;;;4588838;19;20027;-43
2022/08/13 06:56:16;;;;;;;12.35;5.32;;;21.40;99.90;;;;;;4588660;19;20141;-36
2022/08/13 06:57:47;;;;;;;10.40;6.13;;;21.40;99.90;;;;;;4591534;19;20010;-43
2022/08/13 06:59:19;;;;;;;9.00;5.25;;;21.40;99.90;;;;;;4591192;19;20448;-43
2022/08/13 07:00:53;;;;;;;6.03;4.78;;;21.30;99.90;;;;;;4588712;19;20014;-43
2022/08/13 07:02:24;;;;;;;7.18;5.00;;;21.30;99.90;;;;;;4590128;19;20007;-41
2022/08/13 07:03:55;;;;;;;10.00;5.38;;;21.30;99.90;;;;;;4589341;19;20045;-42
2022/08/13 07:05:38;;;;;;;7.60;5.82;;;21.30;99.90;;;;;;4590391;19;20021;-42
2022/08/13 07:07:09;;;;;;;9.10;5.30;;;21.20;99.90;;;;;;4591619;19;20069;-41
2022/08/13 07:08:40;;;;;;;8.77;4.93;;;21.20;99.90;;;;;;4588923;19;20015;-42
2022/08/13 07:10:13;;;;;;;8.90;5.82;;;21.20;99.90;;;;;;4589753;19;20027;-42
2022/08/13 07:11:45;;;;;;;9.55;5.70;;;21.20;99.90;;;;;;4587567;19;20031;-42
2022/08/13 07:13:19;;;;;;;8.98;5.50;;;21.20;99.90;;;;;;4589468;19;20015;-41
2022/08/13 07:14:50;;;;;;;7.97;5.07;;;21.20;99.90;;;;;;4589134;19;20014;-39
2022/08/13 07:16:22;;;;;;;11.20;6.38;;;21.20;99.90;;;;;;4588610;19;20356;-43
2022/08/13 07:17:55;;;;;;;5.97;4.85;;;21.10;99.90;;;;;;4590044;19;20007;-40
2022/08/13 07:19:27;;;;;;;6.63;4.70;;;21.10;99.90;;;;;;4589493;19;20040;-41
2022/08/13 07:20:58;;;;;;;7.28;4.93;;;21.10;99.90;;;;;;4587291;19;20015;-42
2022/08/13 07:22:29;;;;;;;6.07;4.82;;;21.10;99.90;;;;;;4587921;19;20014;-43
2022/08/13 07:24:02;;;;;;;10.48;5.40;;;21.10;99.90;;;;;;4591129;19;20024;-44
2022/08/13 07:25:33;;;;;;;6.55;5.20;;;21.20;99.90;;;;;;4590522;19;20516;-42
2022/08/13 07:27:05;;;;;;;6.05;5.55;;;21.20;99.90;;;;;;4587412;19;20029;-41
2022/08/13 07:28:37;;;;;;;7.80;5.60;;;20.40;99.90;;;;;;4583599;19;20019;-35
2022/08/13 07:30:11;;;;;;;6.53;5.90;;;20.30;99.90;;;;;;4590186;19;20030;-34
2022/08/13 07:31:47;;;;;;;5.95;5.07;;;20.30;99.90;;;;;;4588798;19;20031;-34
2022/08/13 07:33:19;;;;;;;5.35;4.85;;;20.40;99.90;;;;;;4587338;19;20019;-35
2022/08/13 07:34:50;;;;;;;6.25;5.65;;;20.40;99.90;;;;;;4589668;19;20019;-34
2022/08/13 07:36:24;;;;;;;7.63;6.15;;;20.50;99.90;;;;;;4587928;19;20499;-33
2022/08/13 07:37:55;;;;;;;5.85;5.25;;;20.50;99.90;;;;;;4590809;19;20018;-35
2022/08/13 07:39:26;;;;;;;5.85;5.35;;;20.60;99.90;;;;;;4590608;19;20052;-34
2022/08/13 07:40:58;;;;;;;5.93;5.43;;;20.70;99.90;;;;;;4590821;19;20017;-32
2022/08/13 07:42:31;;;;;;;;;;;20.80;99.90;;;;;;4590284;19;20464;-32
2022/08/13 07:44:03;;;;;;;5.07;4.68;;;20.80;99.90;;;;;;4589246;19;19919;-34
2022/08/13 07:45:34;;;;;;;6.85;4.90;;;21.00;99.90;;;;;;4589381;19;20012;-34
2022/08/13 07:47:09;;;;;;;5.35;4.82;;;21.00;99.90;;;;;;4589573;19;20010;-36
2022/08/13 07:48:42;;;;;;;5.63;5.13;;;21.10;99.90;;;;;;4588353;19;20010;-35
2022/08/13 07:50:14;;;;;;;5.53;4.50;;;21.10;99.90;;;;;;4587894;19;20022;-34
2022/08/13 07:51:46;;;;;;;5.35;4.85;;;21.20;99.90;;;;;;4586718;19;20019;-34
2022/08/13 07:53:17;;;;;;;5.40;4.90;;;21.30;99.90;;;;;;4587001;19;20015;-35
2022/08/13 07:54:48;;;;;;;7.93;6.35;;;21.40;99.90;;;;;;4587841;19;20011;-34
2022/08/13 07:56:31;;;;;;;5.47;4.72;;;21.40;99.90;;;;;;4589426;19;20477;-34
2022/08/13 07:58:02;;;;;;;4.78;4.18;;;21.50;99.90;;;;;;4587699;19;20402;-34
2022/08/13 07:59:33;;;;;;;5.80;5.10;;;21.60;99.90;;;;;;4589536;19;19999;-34
2022/08/13 08:01:05;;;;;;;5.47;4.90;;;21.60;99.90;;;;;;4589453;19;20062;-34
2022/08/13 08:02:36;;;;;;;5.20;4.72;;;21.60;99.90;;;;;;4588628;19;20011;-35
2022/08/13 08:04:07;;;;;;;6.72;4.63;;;21.60;99.90;;;;;;4588771;19;20571;-35
2022/08/13 08:05:38;;;;;;;5.00;4.10;;;21.60;99.90;;;;;;4588800;19;20006;-34
2022/08/13 08:07:12;;;;;;;8.45;4.55;;;21.80;99.90;;;;;;4588950;19;20007;-35
2022/08/13 08:08:44;;;;;;;4.25;3.80;;;22.00;99.90;;;;;;4588565;19;20023;-34
2022/08/13 08:10:15;;;;;;;;;;;22.10;99.90;;;;;;4589201;19;20374;-34
2022/08/13 08:13:36;;;;;;;4.05;3.65;;;22.30;99.90;;;;;;4589640;19;20035;-34
2022/08/13 08:15:08;;;;;;;4.47;3.20;;;22.40;99.90;;;;;;4589398;19;20097;-34
2022/08/13 08:16:42;;;;;;;3.70;3.13;;;22.40;99.90;;;;;;4591512;19;20342;-34
2022/08/13 08:18:13;;;;;;;6.13;3.97;;;22.30;99.90;;;;;;4593235;19;20010;-35